createdAt,value
2022-09-26T00:00:37.481Z,3.25
2022-09-26T00:04:01.768Z,3.20
2022-09-26T00:07:24.711Z,3.90
2022-09-26T00:10:47.612Z,2.88
2022-09-26T00:14:16.843Z,3.65
2022-09-26T00:17:39.735Z,3.55
2022-09-26T00:21:06.904Z,2.45
2022-09-26T00:24:31.030Z,3.00
2022-09-26T00:27:53.949Z,2.83
2022-09-26T00:31:20.153Z,3.80
2022-09-26T00:34:43.093Z,3.65
2022-09-26T00:38:06.523Z,3.60
2022-09-26T00:41:29.463Z,3.72
2022-09-26T00:44:55.212Z,3.67
2022-09-26T00:48:20.674Z,3.25
2022-09-26T00:51:47.250Z,3.72
2022-09-26T00:55:12.449Z,3.40
2022-09-26T00:58:42.044Z,3.40
2022-09-26T01:02:05.566Z,3.72
2022-09-26T01:05:30.179Z,4.90
2022-09-26T01:08:57.267Z,4.53
2022-09-26T01:12:22.010Z,2.75
2022-09-26T01:15:44.946Z,4.00
2022-09-26T01:19:16.028Z,4.65
2022-09-26T01:23:22.373Z,4.20
2022-09-26T01:27:10.325Z,4.63
2022-09-26T01:30:42.409Z,4.60
2022-09-26T01:34:14.152Z,4.65
2022-09-26T01:37:47.522Z,4.03
2022-09-26T01:41:25.456Z,4.95
2022-09-26T01:44:55.663Z,3.88
2022-09-26T01:48:25.887Z,4.20
2022-09-26T01:51:55.164Z,4.15
2022-09-26T01:55:22.576Z,5.20
2022-09-26T01:58:52.067Z,2.78
2022-09-26T02:02:20.156Z,3.88
2022-09-26T02:05:47.052Z,4.20
2022-09-26T02:09:13.401Z,4.90
2022-09-26T02:12:41.774Z,2.65
2022-09-26T02:16:11.854Z,4.72
2022-09-26T02:19:40.251Z,3.63
2022-09-26T02:23:05.119Z,3.42
2022-09-26T02:26:28.050Z,4.32
2022-09-26T02:29:51.007Z,3.35
2022-09-26T02:33:15.234Z,3.13
2022-09-26T02:36:38.308Z,4.28
2022-09-26T02:40:02.916Z,3.95
2022-09-26T02:43:45.039Z,3.88
2022-09-26T02:47:55.676Z,3.15
2022-09-26T02:51:32.127Z,3.70
2022-09-26T02:55:13.381Z,5.00
2022-09-26T02:58:47.377Z,3.95
2022-09-26T03:02:15.642Z,3.67
2022-09-26T03:05:47.078Z,3.65
2022-09-26T03:09:13.051Z,3.25
2022-09-26T03:12:40.248Z,4.40
2022-09-26T03:16:04.443Z,4.82
2022-09-26T03:19:33.178Z,3.72
2022-09-26T03:22:56.776Z,2.28
2022-09-26T03:26:24.452Z,4.25
2022-09-26T03:29:56.262Z,4.60
2022-09-26T03:33:20.725Z,5.38
2022-09-26T03:36:45.529Z,5.10
2022-09-26T03:40:11.742Z,4.00
2022-09-26T03:44:03.030Z,4.43
2022-09-26T03:47:44.174Z,3.85
2022-09-26T03:51:09.937Z,4.53
2022-09-26T03:54:33.415Z,5.40
2022-09-26T03:57:56.467Z,3.85
2022-09-26T04:01:27.025Z,4.55
2022-09-26T04:04:51.329Z,4.88
2022-09-26T04:08:14.417Z,4.43
2022-09-26T04:11:40.593Z,3.75
2022-09-26T04:15:03.924Z,2.88
2022-09-26T04:18:30.205Z,5.05
2022-09-26T04:21:54.491Z,4.78
2022-09-26T04:25:17.962Z,4.50
2022-09-26T04:28:41.351Z,4.00
2022-09-26T04:32:04.756Z,4.47
2022-09-26T04:35:47.364Z,4.85
2022-09-26T04:39:11.832Z,4.30
2022-09-26T04:42:36.860Z,4.90
2022-09-26T04:46:00.823Z,4.63
2022-09-26T04:49:25.141Z,4.10
2022-09-26T04:52:48.079Z,3.95
2022-09-26T04:56:14.874Z,3.58
2022-09-26T04:59:37.788Z,4.47
2022-09-26T05:03:00.979Z,3.47
2022-09-26T05:06:24.082Z,5.20
2022-09-26T05:09:47.865Z,3.92
2022-09-26T05:13:14.386Z,5.15
2022-09-26T05:16:38.870Z,4.35
2022-09-26T05:20:02.828Z,3.83
2022-09-26T05:23:55.753Z,4.50
2022-09-26T05:27:19.140Z,5.20
2022-09-26T05:30:43.475Z,4.25
2022-09-26T05:34:08.607Z,3.95
2022-09-26T05:37:31.530Z,4.80
2022-09-26T05:40:58.460Z,4.07
2022-09-26T05:44:23.343Z,3.72
2022-09-26T05:47:48.593Z,4.75
2022-09-26T05:51:13.912Z,4.18
2022-09-26T05:54:39.087Z,3.00
2022-09-26T05:58:21.963Z,3.60
2022-09-26T06:02:08.027Z,4.10
2022-09-26T06:06:12.439Z,3.58
2022-09-26T06:09:35.409Z,3.80
2022-09-26T06:13:15.192Z,2.67
2022-09-26T06:16:43.179Z,3.13
2022-09-26T06:20:07.229Z,3.28
2022-09-26T06:23:34.686Z,3.20
2022-09-26T06:26:58.886Z,3.10
2022-09-26T06:30:23.399Z,3.33
2022-09-26T06:33:51.256Z,2.95
2022-09-26T06:37:23.093Z,3.08
2022-09-26T06:40:47.471Z,3.22
2022-09-26T06:44:10.747Z,2.63
2022-09-26T06:47:44.323Z,3.40
2022-09-26T06:51:25.466Z,3.17
2022-09-26T06:54:48.923Z,3.10
2022-09-26T06:58:13.282Z,3.03
2022-09-26T07:01:53.087Z,2.70
2022-09-26T07:05:35.961Z,3.13
2022-09-26T07:09:04.662Z,2.90
2022-09-26T07:12:47.160Z,2.30
2022-09-26T07:16:13.301Z,2.53
2022-09-26T07:19:55.351Z,2.83
2022-09-26T07:23:36.962Z,2.20
2022-09-26T07:27:00.926Z,2.83
2022-09-26T07:30:24.413Z,2.50
2022-09-26T07:34:00.166Z,2.00
2022-09-26T07:37:23.082Z,2.65
2022-09-26T07:40:46.169Z,2.58
2022-09-26T07:48:10.232Z,2.08
2022-09-26T07:52:00.862Z,2.00
2022-09-26T07:56:04.017Z,2.38
2022-09-26T07:59:49.632Z,2.80
2022-09-26T08:03:36.793Z,2.33
2022-09-26T08:07:10.874Z,2.28
2022-09-26T08:10:39.172Z,1.98
2022-09-26T08:14:02.257Z,2.50
2022-09-26T08:17:38.141Z,2.70
2022-09-26T08:21:05.579Z,2.47
2022-09-26T08:24:29.869Z,2.35
2022-09-26T08:28:12.827Z,2.60
2022-09-26T08:31:36.891Z,2.00
2022-09-26T08:35:00.896Z,1.60
2022-09-26T08:38:42.086Z,2.38
2022-09-26T08:42:47.391Z,2.25
2022-09-26T08:46:42.938Z,1.60
2022-09-26T08:50:33.231Z,2.15
2022-09-26T08:54:02.324Z,2.25
2022-09-26T08:57:34.560Z,2.95
2022-09-26T09:01:02.665Z,3.85
2022-09-26T09:04:37.536Z,3.35
2022-09-26T09:08:04.069Z,3.78
2022-09-26T09:11:52.696Z,3.85
2022-09-26T09:15:26.055Z,4.03
2022-09-26T09:19:35.985Z,3.65
2022-09-26T09:23:35.486Z,4.45
2022-09-26T09:30:56.463Z,3.95
2022-09-26T09:34:42.909Z,3.22
2022-09-26T09:38:39.311Z,4.90
2022-09-26T09:42:24.448Z,3.33
2022-09-26T09:45:50.151Z,4.65
2022-09-26T09:49:20.784Z,3.28
2022-09-26T09:52:54.509Z,4.28
2022-09-26T09:56:28.869Z,3.53
2022-09-26T10:00:03.633Z,4.07
2022-09-26T10:03:42.968Z,3.72
2022-09-26T10:07:06.271Z,3.17
2022-09-26T10:10:40.621Z,4.20
2022-09-26T10:14:29.491Z,3.25
2022-09-26T10:18:24.035Z,2.78
2022-09-26T10:21:54.259Z,3.30
2022-09-26T10:25:22.234Z,3.67
2022-09-26T10:28:49.300Z,3.00
2022-09-26T10:32:13.009Z,3.17
2022-09-26T10:35:43.314Z,3.33
2022-09-26T10:39:36.067Z,3.28
2022-09-26T10:43:20.773Z,2.72
2022-09-26T10:46:46.478Z,3.95
2022-09-26T10:50:31.139Z,2.88
2022-09-26T10:54:19.572Z,3.88
2022-09-26T10:57:47.274Z,3.38
2022-09-26T11:01:22.179Z,3.45
2022-09-26T11:05:05.300Z,3.10
2022-09-26T11:08:41.074Z,3.95
2022-09-26T11:12:26.180Z,2.85
2022-09-26T11:16:01.390Z,3.65
2022-09-26T11:19:39.314Z,2.95
2022-09-26T11:23:14.145Z,2.38
2022-09-26T11:30:26.221Z,2.95
2022-09-26T11:33:54.406Z,3.33
2022-09-26T11:38:05.758Z,3.92
2022-09-26T11:41:44.962Z,3.80
2022-09-26T11:45:19.289Z,3.58
2022-09-26T11:49:13.461Z,3.65
2022-09-26T11:53:07.305Z,3.25
2022-09-26T11:56:48.140Z,2.63
2022-09-26T12:00:24.141Z,2.72
2022-09-26T12:04:12.119Z,3.15
2022-09-26T12:07:43.533Z,2.83
2022-09-26T12:11:17.183Z,3.75
2022-09-26T12:14:56.778Z,2.67
2022-09-26T12:18:27.942Z,4.65
2022-09-26T12:22:16.408Z,3.28
2022-09-26T12:25:55.702Z,2.35
2022-09-26T12:29:33.056Z,3.25
2022-09-26T12:33:07.447Z,3.42
2022-09-26T12:36:47.428Z,2.40
2022-09-26T12:40:30.584Z,2.78
2022-09-26T12:44:22.961Z,3.22
2022-09-26T12:48:06.038Z,3.85
2022-09-26T12:51:41.973Z,2.80
2022-09-26T12:55:20.976Z,3.15
2022-09-26T12:58:58.675Z,3.47
2022-09-26T13:02:42.458Z,2.92
2022-09-26T13:06:33.408Z,3.65
2022-09-26T13:10:19.232Z,3.10
2022-09-26T13:14:06.045Z,2.88
2022-09-26T13:17:34.334Z,2.63
2022-09-26T13:21:02.929Z,2.50
2022-09-26T13:24:34.671Z,2.47
2022-09-26T13:28:09.576Z,2.60
2022-09-26T13:31:39.808Z,3.15
2022-09-26T13:35:08.641Z,3.20
2022-09-26T13:38:52.949Z,2.33
2022-09-26T13:42:21.551Z,2.55
2022-09-26T13:46:01.235Z,2.83
2022-09-26T13:49:34.088Z,2.63
2022-09-26T13:53:05.708Z,2.92
2022-09-26T13:56:44.207Z,3.08
2022-09-26T14:00:40.915Z,4.00
2022-09-26T14:04:19.973Z,3.22
2022-09-26T14:08:09.846Z,2.45
2022-09-26T14:11:48.918Z,2.80
2022-09-26T14:15:25.023Z,2.35
2022-09-26T14:19:06.769Z,2.60
2022-09-26T14:22:37.375Z,2.75
2022-09-26T14:26:07.686Z,4.13
2022-09-26T14:29:37.649Z,2.33
2022-09-26T14:33:05.569Z,2.58
2022-09-26T14:36:32.106Z,1.80
2022-09-26T14:40:17.593Z,2.97
2022-09-26T14:43:42.665Z,2.55
2022-09-26T14:47:09.267Z,2.92
2022-09-26T14:50:41.369Z,3.00
2022-09-26T14:54:07.026Z,3.00
2022-09-26T14:57:33.886Z,2.75
2022-09-26T15:01:00.349Z,3.20
2022-09-26T15:04:26.002Z,2.22
2022-09-26T15:07:52.485Z,2.53
2022-09-26T15:11:27.744Z,3.00
2022-09-26T15:14:54.847Z,2.72
2022-09-26T15:18:25.318Z,2.72
2022-09-26T15:21:55.671Z,3.40
2022-09-26T15:25:24.273Z,2.83
2022-09-26T15:28:50.190Z,2.60
2022-09-26T15:32:21.258Z,2.83
2022-09-26T15:35:53.923Z,2.78
2022-09-26T15:39:50.074Z,2.85
2022-09-26T15:43:20.350Z,2.75
2022-09-26T15:46:43.434Z,2.70
2022-09-26T15:50:12.139Z,2.78
2022-09-26T15:53:39.552Z,1.92
2022-09-26T15:57:04.081Z,2.63
2022-09-26T16:00:33.367Z,3.05
2022-09-26T16:03:58.251Z,2.75
2022-09-26T16:07:25.418Z,2.88
2022-09-26T16:10:54.980Z,1.90
2022-09-26T16:14:26.704Z,2.85
2022-09-26T16:17:56.057Z,2.45
2022-09-26T16:21:21.354Z,3.38
2022-09-26T16:24:44.318Z,2.30
2022-09-26T16:28:44.627Z,2.50
2022-09-26T16:32:19.315Z,2.70
2022-09-26T16:35:48.411Z,2.42
2022-09-26T16:39:21.019Z,1.83
2022-09-26T16:42:46.203Z,3.10
2022-09-26T16:46:14.801Z,2.63
2022-09-26T16:49:45.910Z,2.53
2022-09-26T16:53:11.572Z,2.60
2022-09-26T16:56:36.134Z,2.10
2022-09-26T17:00:14.955Z,2.30
2022-09-26T17:03:40.987Z,1.75
2022-09-26T17:07:09.841Z,2.20
2022-09-26T17:10:37.318Z,2.25
2022-09-26T17:14:00.298Z,2.28
2022-09-26T17:17:25.902Z,2.10
2022-09-26T17:20:49.942Z,2.60
2022-09-26T17:24:15.910Z,2.13
2022-09-26T17:27:40.945Z,1.77
2022-09-26T17:31:07.425Z,1.80
2022-09-26T17:34:31.039Z,2.35
2022-09-26T17:37:54.278Z,2.70
2022-09-26T17:41:17.480Z,1.83
2022-09-26T17:44:43.202Z,1.85
2022-09-26T17:48:11.900Z,1.83
2022-09-26T17:51:36.128Z,2.20
2022-09-26T17:55:01.335Z,2.10
2022-09-26T17:58:24.326Z,1.75
2022-09-26T18:01:54.995Z,2.25
2022-09-26T18:05:22.538Z,2.80
2022-09-26T18:08:46.346Z,2.00
2022-09-26T18:12:17.115Z,1.88
2022-09-26T18:15:40.324Z,2.08
2022-09-26T18:19:14.145Z,2.15
2022-09-26T18:22:37.161Z,1.77
2022-09-26T18:26:00.450Z,2.28
2022-09-26T18:29:27.387Z,2.35
2022-09-26T18:32:54.876Z,2.38
2022-09-26T18:36:19.442Z,1.67
2022-09-26T18:39:42.499Z,2.05
2022-09-26T18:43:05.701Z,1.67
2022-09-26T18:46:30.518Z,2.13
2022-09-26T18:49:53.877Z,2.67
2022-09-26T18:53:21.083Z,1.92
2022-09-26T18:57:02.154Z,2.20
2022-09-26T19:00:26.635Z,2.38
2022-09-26T19:03:50.090Z,1.50
2022-09-26T19:07:21.100Z,2.50
2022-09-26T19:10:46.443Z,1.98
2022-09-26T19:14:15.166Z,1.88
2022-09-26T19:17:38.661Z,1.52
2022-09-26T19:21:03.227Z,1.73
2022-09-26T19:24:32.497Z,2.10
2022-09-26T19:27:57.353Z,1.70
2022-09-26T19:31:20.726Z,1.65
2022-09-26T19:34:45.271Z,1.88
2022-09-26T19:38:19.632Z,1.90
2022-09-26T19:41:43.094Z,2.50
2022-09-26T19:45:09.527Z,2.63
2022-09-26T19:48:38.862Z,1.63
2022-09-26T19:52:02.933Z,2.42
2022-09-26T19:55:27.829Z,1.40
2022-09-26T19:58:52.690Z,2.28
2022-09-26T20:02:20.618Z,1.58
2022-09-26T20:05:43.693Z,1.70
2022-09-26T20:09:14.168Z,2.03
2022-09-26T20:12:37.141Z,1.98
2022-09-26T20:16:00.139Z,1.83
2022-09-26T20:19:36.469Z,1.80
2022-09-26T20:23:00.011Z,1.83
2022-09-26T20:26:23.255Z,2.33
2022-09-26T20:30:00.626Z,2.42
2022-09-26T20:33:26.083Z,2.58
2022-09-26T20:36:52.313Z,2.55
2022-09-26T20:40:18.647Z,2.00
2022-09-26T20:43:44.153Z,2.53
2022-09-26T20:47:07.235Z,2.22
2022-09-26T20:50:34.153Z,2.33
2022-09-26T20:53:59.967Z,1.80
2022-09-26T20:57:23.557Z,1.90
2022-09-26T21:00:47.084Z,2.33
2022-09-26T21:04:15.197Z,1.95
2022-09-26T21:07:38.326Z,2.35
2022-09-26T21:11:03.159Z,2.63
2022-09-26T21:14:26.180Z,2.05
2022-09-26T21:17:51.209Z,2.50
2022-09-26T21:21:22.052Z,1.85
2022-09-26T21:25:18.961Z,1.92
2022-09-26T21:28:43.406Z,1.67
2022-09-26T21:32:08.532Z,1.80
2022-09-26T21:35:33.412Z,2.00
2022-09-26T21:38:57.749Z,1.98
2022-09-26T21:42:20.965Z,1.85
2022-09-26T21:45:46.987Z,1.92
2022-09-26T21:49:10.156Z,2.15
2022-09-26T21:52:36.953Z,1.60
2022-09-26T21:56:07.372Z,2.00
2022-09-26T21:59:31.788Z,1.70
2022-09-26T22:02:59.502Z,1.55
2022-09-26T22:06:22.555Z,1.70
2022-09-26T22:09:45.739Z,1.73
2022-09-26T22:13:09.047Z,2.25
2022-09-26T22:16:32.192Z,1.90
2022-09-26T22:19:56.589Z,1.55
2022-09-26T22:23:19.770Z,2.08
2022-09-26T22:26:42.801Z,2.40
2022-09-26T22:30:07.126Z,2.00
2022-09-26T22:33:30.252Z,1.80
2022-09-26T22:36:54.626Z,1.77
2022-09-26T22:40:18.315Z,1.58
2022-09-26T22:43:41.281Z,2.08
2022-09-26T22:47:04.283Z,1.83
2022-09-26T22:50:27.296Z,1.65
2022-09-26T22:53:51.655Z,1.30
2022-09-26T22:57:15.166Z,1.30
2022-09-26T23:00:39.002Z,1.52
2022-09-26T23:04:02.340Z,2.05
2022-09-26T23:07:25.456Z,1.55
2022-09-26T23:10:55.249Z,2.03
2022-09-26T23:14:18.200Z,1.60
2022-09-26T23:17:41.119Z,2.38
2022-09-26T23:21:08.510Z,2.08
2022-09-26T23:24:31.604Z,2.08
2022-09-26T23:27:55.910Z,1.58
2022-09-26T23:31:19.127Z,1.67
2022-09-26T23:34:42.145Z,1.67
2022-09-26T23:38:05.524Z,1.90
2022-09-26T23:41:28.781Z,1.55
2022-09-26T23:44:53.089Z,2.00
2022-09-26T23:48:16.649Z,1.63
2022-09-26T23:51:39.620Z,1.60
2022-09-26T23:55:02.574Z,1.70
2022-09-26T23:58:25.589Z,1.60
